Time;durP1;ratioP1;P1;durP2;ratioP2;P2;SDS_P1;SDS_P2;PMS_P1;PMS_P2;Temp;Humidity;BMP_temperature;BMP_pressure;BME280_temperature;BME280_humidity;BME280_pressure;Samples;Min_cycle;Max_cycle;Signal;HPM_P1;HPM_P2
2023/03/16 00:01:16;;;;;;;9.85;3.03;;;-1.30;99.90;;;;;;5081765;28;20033;-59
2023/03/16 00:03:42;;;;;;;8.32;3.25;;;-1.30;99.90;;;;;;5081555;28;20047;-60
2023/03/16 00:06:07;;;;;;;14.10;3.40;;;-1.30;99.90;;;;;;5082065;28;20096;-59
2023/03/16 00:08:34;;;;;;;13.38;4.28;;;-1.30;99.90;;;;;;5081421;28;20040;-61
2023/03/16 00:11:01;;;;;;;13.13;4.15;;;-1.40;99.90;;;;;;5083759;28;20040;-62
2023/03/16 00:13:28;;;;;;;10.38;4.03;;;-1.40;99.90;;;;;;5081957;28;20044;-60
2023/03/16 00:15:56;;;;;;;5.72;3.35;;;-1.40;99.90;;;;;;5080555;28;20044;-59
2023/03/16 00:18:26;;;;;;;9.68;3.70;;;-1.40;99.90;;;;;;5071484;28;20127;-60
2023/03/16 00:20:57;;;;;;;10.50;3.40;;;-1.40;99.90;;;;;;5069634;28;20037;-62
2023/03/16 00:23:26;;;;;;;7.97;3.42;;;-1.40;99.90;;;;;;5065273;28;20040;-61
2023/03/16 00:25:59;;;;;;;12.13;4.15;;;-1.40;99.90;;;;;;5069601;28;20080;-62
2023/03/16 00:28:26;;;;;;;8.32;3.38;;;-1.40;99.90;;;;;;5068740;28;20045;-62
2023/03/16 00:30:57;;;;;;;13.20;3.58;;;-1.50;99.90;;;;;;5068637;28;20032;-63
2023/03/16 00:33:23;;;;;;;8.35;2.88;;;-1.40;99.90;;;;;;5064565;28;20102;-61
2023/03/16 00:35:49;;;;;;;10.63;3.90;;;-1.50;99.90;;;;;;5069472;28;20044;-61
2023/03/16 00:38:18;;;;;;;9.43;3.85;;;-1.50;99.90;;;;;;5068672;28;20049;-59
2023/03/16 00:40:45;;;;;;;12.85;4.25;;;-1.50;99.90;;;;;;5070044;28;20064;-62
2023/03/16 00:43:10;;;;;;;6.05;3.00;;;-1.50;99.90;;;;;;5068646;28;20047;-62
2023/03/16 00:45:36;;;;;;;12.20;3.60;;;-1.60;99.90;;;;;;5068503;28;20408;-58
2023/03/16 00:48:02;;;;;;;7.75;2.70;;;-1.50;99.90;;;;;;5069081;28;20037;-61
2023/03/16 00:50:27;;;;;;;10.57;4.18;;;-1.60;99.90;;;;;;5068700;28;20036;-61
2023/03/16 00:52:53;;;;;;;8.88;3.15;;;-1.60;99.90;;;;;;5066335;28;20673;-62
2023/03/16 00:55:20;;;;;;;6.70;2.78;;;-1.70;99.90;;;;;;5063661;28;20447;-60
2023/03/16 00:57:45;;;;;;;6.75;2.72;;;-1.70;99.90;;;;;;5068932;28;20106;-58
2023/03/16 01:00:15;;;;;;;9.38;3.05;;;-1.70;99.90;;;;;;5068686;28;20032;-62
2023/03/16 01:02:41;;;;;;;21.00;5.63;;;-1.70;99.90;;;;;;5064951;28;20036;-62
2023/03/16 01:05:08;;;;;;;7.45;3.08;;;-1.70;99.90;;;;;;5067620;28;20043;-63
2023/03/16 01:07:35;;;;;;;14.00;3.20;;;-1.70;99.90;;;;;;5068349;28;20577;-63
2023/03/16 01:10:02;;;;;;;6.85;3.17;;;-1.70;99.90;;;;;;5068033;28;20044;-60
2023/03/16 01:12:27;;;;;;;7.45;2.42;;;-1.70;99.90;;;;;;5068810;28;20102;-60
2023/03/16 01:14:54;;;;;;;10.05;2.97;;;-1.70;99.90;;;;;;5067382;28;20674;-62
2023/03/16 01:17:21;;;;;;;9.57;2.55;;;-1.70;99.90;;;;;;5060031;28;20072;-62
2023/03/16 01:19:47;;;;;;;7.85;3.25;;;-1.80;99.90;;;;;;5066256;28;20131;-60
2023/03/16 01:22:13;;;;;;;10.68;3.15;;;-1.90;99.90;;;;;;5068137;28;20159;-61
2023/03/16 01:24:40;;;;;;;10.23;3.25;;;-1.90;99.90;;;;;;5067790;28;20068;-61
2023/03/16 01:27:07;;;;;;;11.02;3.20;;;-1.80;99.90;;;;;;5068306;28;20041;-59
2023/03/16 01:29:33;;;;;;;13.55;3.00;;;-1.80;99.90;;;;;;5064207;28;20068;-60
2023/03/16 01:31:59;;;;;;;7.63;2.67;;;-1.80;99.90;;;;;;5066661;28;20139;-61
2023/03/16 01:34:25;;;;;;;10.85;3.30;;;-1.80;99.90;;;;;;5067306;28;20049;-59
2023/03/16 01:36:51;;;;;;;6.55;2.50;;;-1.80;99.90;;;;;;5067329;28;20040;-61
2023/03/16 01:39:17;;;;;;;8.68;2.28;;;-1.70;99.90;;;;;;5067886;28;20037;-61
2023/03/16 01:41:44;;;;;;;7.70;3.03;;;-1.70;99.90;;;;;;5068524;28;20036;-60
2023/03/16 01:44:13;;;;;;;11.52;2.80;;;-1.80;99.90;;;;;;5067495;28;20059;-61
2023/03/16 01:46:40;;;;;;;11.77;2.75;;;-1.80;99.90;;;;;;5067896;28;20044;-61
2023/03/16 01:49:22;;;;;;;10.18;2.45;;;-1.80;99.90;;;;;;5067170;28;20092;-61
2023/03/16 01:51:57;;;;;;;5.68;2.63;;;-1.70;99.90;;;;;;5065444;28;20101;-60
2023/03/16 01:54:32;;;;;;;12.25;2.83;;;-1.70;99.90;;;;;;5065711;28;20439;-59
2023/03/16 01:57:04;;;;;;;8.52;2.78;;;-1.60;99.90;;;;;;5067262;28;20048;-60
2023/03/16 01:59:38;;;;;;;5.25;2.20;;;-1.60;99.90;;;;;;5067143;28;20045;-57
2023/03/16 02:02:05;;;;;;;6.55;2.35;;;-1.50;99.90;;;;;;5065231;28;20037;-61
2023/03/16 02:04:45;;;;;;;8.52;2.53;;;-1.50;99.90;;;;;;5066942;28;20058;-58
2023/03/16 02:07:15;;;;;;;7.03;2.65;;;-1.50;99.90;;;;;;5067659;28;20898;-58
2023/03/16 02:09:47;;;;;;;9.95;2.58;;;-1.40;99.90;;;;;;5067127;28;20523;-61
2023/03/16 02:12:17;;;;;;;10.82;2.78;;;-1.40;99.90;;;;;;5066713;28;20076;-61
2023/03/16 02:14:47;;;;;;;7.40;2.30;;;-1.40;99.90;;;;;;5065352;28;20047;-60
2023/03/16 02:17:15;;;;;;;4.90;2.38;;;-1.40;99.90;;;;;;5065702;28;20044;-59
2023/03/16 02:20:08;;;;;;;8.35;2.80;;;-1.30;99.90;;;;;;5067437;28;20049;-62
2023/03/16 02:22:36;;;;;;;6.10;2.47;;;-1.30;99.90;;;;;;5067518;28;20041;-62
2023/03/16 02:25:02;;;;;;;10.90;2.58;;;-1.30;99.90;;;;;;5066767;28;20052;-62
2023/03/16 02:27:53;;;;;;;5.07;2.42;;;-1.20;99.90;;;;;;5067515;28;20037;-61
2023/03/16 02:30:20;;;;;;;6.15;2.50;;;-1.10;99.90;;;;;;5064400;28;20041;-62
2023/03/16 02:32:50;;;;;;;10.63;2.50;;;-1.20;99.90;;;;;;5066793;28;20699;-61
2023/03/16 02:35:16;;;;;;;8.88;2.72;;;-1.20;99.90;;;;;;5067085;28;20048;-60
2023/03/16 02:37:42;;;;;;;3.35;2.00;;;-1.20;99.90;;;;;;5067034;28;20051;-58
2023/03/16 02:40:23;;;;;;;9.38;2.60;;;-1.20;99.90;;;;;;5066894;28;20041;-61
2023/03/16 02:43:01;;;;;;;10.82;2.30;;;-1.20;99.90;;;;;;5066870;28;20055;-61
2023/03/16 02:45:34;;;;;;;7.93;2.28;;;-1.20;99.90;;;;;;5063163;28;20153;-63
2023/03/16 02:48:04;;;;;;;4.00;2.00;;;-1.20;99.90;;;;;;5065775;28;20043;-63
2023/03/16 02:50:29;;;;;;;8.52;2.58;;;-1.20;99.90;;;;;;5066378;28;20043;-62
2023/03/16 02:52:55;;;;;;;5.28;2.15;;;-1.10;99.90;;;;;;5064942;28;20044;-61
2023/03/16 02:55:21;;;;;;;7.35;2.90;;;-1.00;99.90;;;;;;5064518;28;20032;-63
2023/03/16 02:57:47;;;;;;;9.63;2.80;;;-1.00;99.90;;;;;;5065091;28;20044;-58
2023/03/16 03:00:17;;;;;;;10.05;3.15;;;-0.90;99.90;;;;;;5067141;28;20044;-61
2023/03/16 03:02:44;;;;;;;11.38;2.90;;;-0.90;99.90;;;;;;5065640;28;20633;-62
2023/03/16 03:05:10;;;;;;;9.77;3.30;;;-0.70;99.90;;;;;;5066183;28;20040;-61
2023/03/16 03:07:36;;;;;;;7.63;2.72;;;-0.50;99.90;;;;;;5066062;28;20044;-60
2023/03/16 03:10:04;;;;;;;7.07;2.85;;;-0.60;99.90;;;;;;5066647;28;20464;-60
2023/03/16 03:12:32;;;;;;;7.95;2.97;;;-0.60;99.90;;;;;;5067185;28;20052;-59
2023/03/16 03:14:57;;;;;;;12.82;3.42;;;-0.60;99.90;;;;;;5065844;28;20043;-61
2023/03/16 03:17:28;;;;;;;10.88;3.25;;;-0.40;99.90;;;;;;5065248;28;20041;-57
2023/03/16 03:19:56;;;;;;;9.10;3.13;;;-0.30;99.90;;;;;;5063968;28;20044;-61
2023/03/16 03:22:22;;;;;;;8.07;2.83;;;-0.40;99.90;;;;;;5066277;28;20045;-60
2023/03/16 03:24:48;;;;;;;5.78;2.28;;;-0.30;99.90;;;;;;5066453;28;20404;-61
2023/03/16 03:27:13;;;;;;;7.35;2.42;;;-0.30;99.90;;;;;;5066596;28;20041;-60
2023/03/16 03:29:39;;;;;;;6.43;3.08;;;-0.20;99.90;;;;;;5065600;28;20036;-61
2023/03/16 03:32:05;;;;;;;11.57;2.72;;;-0.20;99.90;;;;;;5065222;28;20048;-57
2023/03/16 03:34:31;;;;;;;11.48;3.20;;;-0.10;99.90;;;;;;5065654;28;20123;-62
2023/03/16 03:36:57;;;;;;;6.32;2.50;;;-0.20;99.90;;;;;;5066428;28;20136;-59
2023/03/16 03:39:23;;;;;;;11.60;3.15;;;-0.10;99.90;;;;;;5065432;28;20049;-62
2023/03/16 03:41:48;;;;;;;12.82;2.90;;;-0.10;99.90;;;;;;5067324;28;20047;-61
2023/03/16 03:44:14;;;;;;;12.32;3.25;;;-0.10;99.90;;;;;;5065083;28;20029;-60
2023/03/16 03:46:40;;;;;;;10.02;2.90;;;0.00;99.90;;;;;;5066751;28;20128;-60
2023/03/16 03:49:05;;;;;;;10.35;2.65;;;0.00;99.90;;;;;;5064726;28;20037;-62
2023/03/16 03:51:31;;;;;;;5.70;2.90;;;0.00;99.90;;;;;;5065964;28;20311;-60
2023/03/16 03:53:58;;;;;;;6.55;2.85;;;0.00;99.90;;;;;;5068166;28;20040;-61
2023/03/16 03:56:24;;;;;;;7.78;3.17;;;0.10;99.90;;;;;;5068242;28;20466;-62
2023/03/16 03:58:50;;;;;;;8.32;2.83;;;0.10;99.90;;;;;;5069751;28;20040;-59
2023/03/16 04:01:15;;;;;;;4.43;2.60;;;0.10;99.90;;;;;;5069086;28;20055;-60
2023/03/16 04:03:41;;;;;;;6.32;2.70;;;0.20;99.90;;;;;;5068807;28;20121;-60
2023/03/16 04:06:07;;;;;;;15.50;3.42;;;0.10;99.90;;;;;;5069198;28;20052;-61
2023/03/16 04:08:33;;;;;;;8.35;2.97;;;0.10;99.90;;;;;;5068631;28;20040;-62
2023/03/16 04:10:59;;;;;;;11.20;3.05;;;0.10;99.90;;;;;;5070643;28;20136;-62
2023/03/16 04:13:25;;;;;;;5.22;2.40;;;0.10;99.90;;;;;;5066496;28;20132;-60
2023/03/16 04:16:01;;;;;;;5.03;2.40;;;0.10;99.90;;;;;;5066769;28;20135;-62
2023/03/16 04:18:27;;;;;;;11.25;3.00;;;0.20;99.90;;;;;;5068415;28;20083;-61
2023/03/16 04:20:53;;;;;;;6.35;2.60;;;0.20;99.90;;;;;;5069418;28;20060;-59
2023/03/16 04:23:19;;;;;;;5.75;2.92;;;0.20;99.90;;;;;;5068118;28;20097;-58
2023/03/16 04:25:45;;;;;;;9.45;3.13;;;0.20;99.90;;;;;;5069299;28;20051;-61
2023/03/16 04:28:11;;;;;;;8.38;3.13;;;0.30;99.90;;;;;;5068632;28;20033;-61
2023/03/16 04:30:37;;;;;;;11.85;3.00;;;0.30;99.90;;;;;;5067990;28;20094;-62
2023/03/16 04:33:03;;;;;;;5.68;2.67;;;0.30;99.90;;;;;;5067911;28;20119;-64
2023/03/16 04:35:29;;;;;;;9.77;2.78;;;0.40;99.90;;;;;;5068773;28;20048;-63
2023/03/16 04:37:54;;;;;;;6.32;3.20;;;0.40;99.90;;;;;;5067166;28;20036;-60
2023/03/16 04:40:20;;;;;;;6.85;2.83;;;0.40;99.90;;;;;;5070152;28;20079;-62
2023/03/16 04:42:47;;;;;;;9.15;3.38;;;0.40;99.90;;;;;;5069347;28;20079;-63
2023/03/16 04:45:14;;;;;;;8.20;3.00;;;0.50;99.90;;;;;;5067992;28;20041;-62
2023/03/16 04:47:39;;;;;;;7.38;3.25;;;0.50;99.90;;;;;;5068831;28;20072;-63
2023/03/16 04:50:06;;;;;;;9.88;3.03;;;0.50;99.90;;;;;;5067680;28;20125;-63
2023/03/16 04:52:32;;;;;;;11.30;3.25;;;0.50;99.90;;;;;;5065482;28;20048;-63
2023/03/16 04:54:58;;;;;;;8.23;2.70;;;0.50;99.90;;;;;;5068347;28;20055;-63
2023/03/16 04:57:23;;;;;;;7.22;2.38;;;0.60;99.90;;;;;;5067097;28;20102;-64
2023/03/16 04:59:50;;;;;;;9.90;3.22;;;0.60;99.90;;;;;;5068669;28;20068;-63
2023/03/16 05:02:18;;;;;;;7.97;2.80;;;0.60;99.90;;;;;;5067301;28;20064;-63
2023/03/16 05:04:43;;;;;;;9.77;2.95;;;0.70;99.90;;;;;;5067840;28;20044;-63
2023/03/16 05:07:10;;;;;;;8.25;2.97;;;0.60;99.90;;;;;;5068835;28;20503;-63
2023/03/16 05:09:35;;;;;;;6.60;2.92;;;0.70;99.90;;;;;;5068456;28;20522;-59
2023/03/16 05:12:01;;;;;;;7.80;2.95;;;0.70;99.90;;;;;;5068029;28;20037;-61
2023/03/16 05:14:27;;;;;;;7.15;3.38;;;0.70;99.90;;;;;;5067207;28;20128;-62
2023/03/16 05:16:52;;;;;;;11.60;3.75;;;0.70;99.90;;;;;;5064604;28;20067;-62
2023/03/16 05:19:18;;;;;;;8.20;2.92;;;0.70;99.90;;;;;;5066572;28;20522;-61
2023/03/16 05:21:47;;;;;;;6.43;2.95;;;0.70;99.90;;;;;;5069240;28;20045;-61
2023/03/16 05:24:12;;;;;;;6.53;2.88;;;0.70;99.90;;;;;;5067598;28;20044;-61
2023/03/16 05:26:38;;;;;;;7.28;3.10;;;0.80;99.90;;;;;;5068675;28;20041;-62
2023/03/16 05:29:04;;;;;;;7.03;2.92;;;0.80;99.90;;;;;;5050493;28;20052;-62
2023/03/16 05:31:32;;;;;;;7.97;2.88;;;0.80;99.90;;;;;;5067361;28;20648;-62
2023/03/16 05:33:57;;;;;;;11.30;2.83;;;0.80;99.90;;;;;;5066810;28;20566;-63
2023/03/16 05:36:23;;;;;;;9.10;3.03;;;0.90;99.90;;;;;;5068560;28;20056;-62
2023/03/16 05:38:49;;;;;;;6.35;2.17;;;0.80;99.90;;;;;;5067707;28;20052;-62
2023/03/16 05:41:17;;;;;;;6.22;1.85;;;0.90;99.90;;;;;;5067609;28;20668;-61
2023/03/16 05:43:43;;;;;;;4.35;1.73;;;0.90;99.90;;;;;;5066378;28;20463;-61
2023/03/16 05:46:09;;;;;;;6.47;1.90;;;0.90;99.90;;;;;;5067578;28;20477;-62
2023/03/16 05:48:36;;;;;;;5.20;1.70;;;0.90;99.90;;;;;;5067240;28;20131;-63
2023/03/16 05:51:05;;;;;;;3.92;1.90;;;1.00;99.90;;;;;;5066552;28;20048;-64
2023/03/16 05:53:32;;;;;;;8.90;1.80;;;1.00;99.90;;;;;;5066549;28;20051;-62
2023/03/16 05:55:58;;;;;;;4.38;1.75;;;1.00;99.90;;;;;;5067838;28;20102;-63
2023/03/16 05:58:23;;;;;;;5.22;1.42;;;1.00;99.90;;;;;;5065819;28;20044;-63
2023/03/16 06:00:49;;;;;;;7.45;1.83;;;1.10;99.90;;;;;;5066733;28;20144;-62
2023/03/16 06:03:16;;;;;;;6.70;2.00;;;1.10;99.90;;;;;;5066623;28;20037;-62
2023/03/16 06:05:41;;;;;;;2.50;1.23;;;1.10;99.90;;;;;;5067935;28;20520;-63
2023/03/16 06:08:08;;;;;;;4.05;1.70;;;1.10;99.90;;;;;;5066215;28;20052;-64
2023/03/16 06:10:34;;;;;;;3.65;1.60;;;1.20;99.90;;;;;;5068623;28;20040;-62
2023/03/16 06:13:00;;;;;;;4.82;1.85;;;1.20;99.90;;;;;;5066887;28;20402;-60
2023/03/16 06:15:28;;;;;;;4.55;1.60;;;1.20;99.90;;;;;;5062530;28;20066;-62
2023/03/16 06:17:54;;;;;;;5.05;1.88;;;1.20;99.90;;;;;;5064999;28;20103;-63
2023/03/16 06:20:20;;;;;;;6.22;2.00;;;1.20;99.90;;;;;;5060832;28;20115;-64
2023/03/16 06:22:46;;;;;;;5.95;1.95;;;1.20;99.90;;;;;;5066720;28;20117;-63
2023/03/16 06:25:13;;;;;;;5.90;2.20;;;1.20;99.90;;;;;;5062963;28;20036;-61
2023/03/16 06:27:39;;;;;;;8.77;2.05;;;1.20;99.90;;;;;;5062847;28;20107;-62
2023/03/16 06:30:10;;;;;;;4.30;2.33;;;1.20;99.90;;;;;;5063794;28;20035;-62
2023/03/16 06:32:36;;;;;;;6.20;2.03;;;1.30;99.90;;;;;;5060465;28;20041;-60
2023/03/16 06:35:03;;;;;;;3.72;1.90;;;1.40;99.90;;;;;;5058658;28;20041;-61
2023/03/16 06:37:29;;;;;;;4.20;2.13;;;1.40;99.90;;;;;;5060619;28;20048;-59
2023/03/16 06:39:55;;;;;;;3.47;1.65;;;1.50;99.90;;;;;;5066696;28;20120;-64
2023/03/16 06:42:22;;;;;;;4.97;2.40;;;1.60;99.90;;;;;;5065282;28;20556;-64
2023/03/16 06:44:48;;;;;;;4.82;2.42;;;1.70;99.90;;;;;;5064013;28;20048;-65
2023/03/16 06:47:13;;;;;;;6.78;1.73;;;1.80;99.90;;;;;;5065856;28;20469;-63
2023/03/16 06:49:39;;;;;;;6.53;2.58;;;1.90;99.90;;;;;;5066679;28;20422;-62
2023/03/16 06:52:05;;;;;;;7.47;2.53;;;2.00;99.90;;;;;;5067432;28;20068;-64
2023/03/16 06:54:33;;;;;;;9.07;2.38;;;2.10;99.90;;;;;;5066577;28;20504;-63
2023/03/16 06:56:58;;;;;;;6.15;2.33;;;2.20;99.90;;;;;;5065626;28;20048;-64
2023/03/16 06:59:24;;;;;;;4.97;1.70;;;2.20;99.90;;;;;;5066339;28;20451;-64
2023/03/16 07:01:49;;;;;;;5.68;2.28;;;2.30;99.90;;;;;;5065071;28;20143;-60
2023/03/16 07:04:15;;;;;;;5.25;2.28;;;2.40;99.90;;;;;;5065623;28;20098;-61
2023/03/16 07:06:41;;;;;;;4.85;2.00;;;2.60;99.90;;;;;;5066383;28;20497;-62
2023/03/16 07:09:07;;;;;;;8.50;2.47;;;2.60;99.90;;;;;;5065851;28;20051;-61
2023/03/16 07:11:33;;;;;;;3.90;2.13;;;2.60;99.90;;;;;;5065902;28;20128;-61
2023/03/16 07:14:00;;;;;;;5.57;2.63;;;2.60;99.90;;;;;;5066125;28;20128;-59
2023/03/16 07:16:26;;;;;;;7.40;2.42;;;2.50;99.90;;;;;;5065674;28;20053;-58
2023/03/16 07:18:52;;;;;;;7.68;2.63;;;2.50;99.90;;;;;;5062475;28;20119;-56
2023/03/16 07:21:18;;;;;;;6.60;2.40;;;2.50;99.90;;;;;;5062098;28;20067;-55
2023/03/16 07:23:44;;;;;;;5.85;2.28;;;2.60;99.90;;;;;;5062536;28;20043;-61
2023/03/16 07:26:10;;;;;;;3.65;2.03;;;2.80;99.90;;;;;;5065045;28;20047;-57
2023/03/16 07:28:37;;;;;;;11.38;2.72;;;3.00;99.90;;;;;;5068657;28;20045;-58
2023/03/16 07:31:03;;;;;;;6.60;2.60;;;3.30;99.90;;;;;;5052891;28;20040;-60
2023/03/16 07:33:31;;;;;;;5.47;2.45;;;3.30;99.90;;;;;;5043499;28;20037;-61
2023/03/16 07:35:56;;;;;;;4.70;2.33;;;3.30;99.90;;;;;;5040636;28;20063;-61
2023/03/16 07:38:22;;;;;;;7.38;2.95;;;3.50;99.90;;;;;;5044856;28;20485;-61
2023/03/16 07:40:49;;;;;;;9.70;2.72;;;3.70;99.90;;;;;;5040647;28;20531;-62
2023/03/16 07:43:14;;;;;;;4.47;2.20;;;4.00;99.90;;;;;;5041116;28;20045;-59
2023/03/16 07:45:40;;;;;;;5.53;2.58;;;4.10;99.90;;;;;;5037410;28;20041;-61
2023/03/16 07:48:06;;;;;;;6.93;2.70;;;4.10;99.90;;;;;;5046717;28;20049;-62
2023/03/16 07:50:32;;;;;;;8.30;2.55;;;4.10;99.90;;;;;;5039239;28;20047;-61
2023/03/16 07:52:57;;;;;;;5.35;2.95;;;3.70;99.90;;;;;;5040410;28;20059;-60
2023/03/16 07:55:23;;;;;;;4.60;2.20;;;3.60;99.90;;;;;;5048560;28;20040;-63
2023/03/16 07:57:49;;;;;;;4.78;3.10;;;3.60;99.90;;;;;;5047702;28;20490;-57
2023/03/16 08:00:15;;;;;;;4.88;2.40;;;3.70;99.90;;;;;;5042879;28;20060;-61
2023/03/16 08:02:40;;;;;;;4.15;2.47;;;3.80;99.90;;;;;;5043700;28;20037;-61
2023/03/16 08:05:09;;;;;;;6.03;2.80;;;4.00;99.90;;;;;;5043421;28;20037;-61
2023/03/16 08:07:35;;;;;;;8.13;2.88;;;4.20;99.90;;;;;;5039165;28;20048;-61
2023/03/16 08:10:00;;;;;;;4.88;2.25;;;4.50;99.90;;;;;;5040306;28;20063;-62
2023/03/16 08:12:26;;;;;;;;;;;4.30;99.90;;;;;;5039047;28;20440;-63
2023/03/16 08:14:53;;;;;;;6.45;2.85;;;4.30;99.90;;;;;;5040510;28;19917;-62
2023/03/16 08:17:19;;;;;;;5.70;2.47;;;4.30;99.90;;;;;;5049346;28;20036;-63
2023/03/16 08:19:44;;;;;;;7.45;2.53;;;4.10;99.90;;;;;;5042369;28;20126;-63
2023/03/16 08:22:11;;;;;;;7.93;2.33;;;4.30;99.90;;;;;;5035776;28;20045;-63
2023/03/16 08:24:37;;;;;;;3.55;1.83;;;4.70;99.90;;;;;;5042670;28;20088;-62
2023/03/16 08:27:03;;;;;;;7.47;2.40;;;5.10;99.90;;;;;;5035292;28;20065;-63
2023/03/16 08:29:29;;;;;;;4.53;2.70;;;5.70;99.80;;;;;;5044337;28;20533;-62
2023/03/16 08:31:56;;;;;;;3.60;1.85;;;5.90;97.70;;;;;;5044529;28;20029;-62
2023/03/16 08:34:22;;;;;;;4.63;2.42;;;6.30;98.80;;;;;;5038765;28;20047;-61
2023/03/16 08:36:48;;;;;;;3.35;2.22;;;6.00;98.50;;;;;;5033606;28;20492;-62
2023/03/16 08:39:14;;;;;;;6.20;2.35;;;5.00;99.40;;;;;;5045882;28;20035;-59
2023/03/16 08:41:41;;;;;;;7.25;2.42;;;4.70;99.90;;;;;;5030128;28;20493;-63
2023/03/16 08:44:08;;;;;;;6.07;2.30;;;4.70;99.90;;;;;;5043116;28;20125;-61
2023/03/16 08:46:34;;;;;;;4.55;2.10;;;4.70;99.90;;;;;;5035294;28;20049;-63
2023/03/16 08:49:00;;;;;;;8.73;3.13;;;4.70;99.90;;;;;;5048679;28;20055;-61
2023/03/16 08:51:26;;;;;;;4.85;2.33;;;4.70;99.90;;;;;;5029625;28;20066;-62
2023/03/16 08:53:52;;;;;;;7.22;2.85;;;4.90;99.90;;;;;;5048447;28;20394;-63
2023/03/16 08:56:18;;;;;;;5.22;2.33;;;4.80;99.90;;;;;;5031886;28;20116;-63
2023/03/16 08:58:44;;;;;;;4.57;2.95;;;4.60;99.90;;;;;;5047963;28;20131;-63
2023/03/16 09:01:12;;;;;;;4.57;2.40;;;4.60;99.90;;;;;;5049183;28;20051;-60
2023/03/16 09:03:39;;;;;;;5.40;2.63;;;4.70;99.90;;;;;;5043176;28;20033;-62
2023/03/16 09:06:08;;;;;;;5.32;2.45;;;4.70;99.90;;;;;;5042584;28;20075;-61
2023/03/16 09:08:35;;;;;;;5.30;2.22;;;4.80;99.90;;;;;;5045391;28;20033;-60
2023/03/16 09:11:06;;;;;;;6.20;2.80;;;4.90;99.90;;;;;;5045186;28;20033;-62
2023/03/16 09:13:33;;;;;;;5.72;2.83;;;4.80;99.90;;;;;;5043374;28;20080;-60
2023/03/16 09:15:58;;;;;;;5.32;2.35;;;4.70;99.90;;;;;;5042250;28;20049;-60
2023/03/16 09:18:26;;;;;;;5.28;2.42;;;4.90;99.90;;;;;;5046576;28;20045;-62
2023/03/16 09:21:00;;;;;;;5.25;2.83;;;4.90;99.90;;;;;;5040178;28;20083;-61
2023/03/16 09:23:27;;;;;;;7.07;2.70;;;4.80;99.90;;;;;;5045606;28;20114;-61
2023/03/16 09:25:55;;;;;;;5.30;2.70;;;4.90;99.90;;;;;;5041716;28;20467;-62
2023/03/16 09:28:21;;;;;;;6.55;2.60;;;4.80;99.90;;;;;;5044321;28;20489;-62
2023/03/16 09:30:47;;;;;;;6.47;3.25;;;4.70;99.90;;;;;;5046326;28;20032;-58
2023/03/16 09:33:12;;;;;;;4.80;2.67;;;4.60;99.90;;;;;;5044667;28;20056;-63
2023/03/16 09:35:38;;;;;;;8.25;3.55;;;4.40;99.90;;;;;;5040486;28;20379;-63
2023/03/16 09:38:04;;;;;;;6.10;2.70;;;4.60;99.90;;;;;;5042245;28;20543;-62
2023/03/16 09:40:30;;;;;;;5.65;3.13;;;4.60;99.90;;;;;;5043529;28;20041;-63
2023/03/16 09:43:15;;;;;;;5.63;3.40;;;4.60;99.90;;;;;;5045448;28;20580;-63
2023/03/16 09:46:13;;;;;;;4.53;2.60;;;4.80;99.90;;;;;;5039276;28;20521;-62
2023/03/16 09:48:39;;;;;;;;;;;5.10;99.90;;;;;;5042966;28;20443;-64
2023/03/16 09:51:17;;;;;;;8.57;2.80;;;5.40;99.90;;;;;;5032442;28;19920;-64
2023/03/16 09:53:45;;;;;;;8.25;3.20;;;5.40;99.90;;;;;;5044398;28;20053;-63
2023/03/16 09:56:30;;;;;;;4.68;2.47;;;5.30;99.90;;;;;;5040273;28;20489;-63
2023/03/16 09:58:58;;;;;;;6.50;2.80;;;5.70;99.90;;;;;;5043662;28;20049;-63
2023/03/16 10:01:48;;;;;;;5.57;2.97;;;5.70;99.90;;;;;;5047483;28;20102;-62
2023/03/16 10:04:46;;;;;;;7.88;3.30;;;5.60;99.90;;;;;;5043234;28;20045;-63
2023/03/16 10:07:14;;;;;;;;;;;5.60;99.90;;;;;;5035336;28;20048;-64
2023/03/16 10:09:51;;;;;;;5.90;3.15;;;5.40;99.90;;;;;;5047366;28;19916;-62
2023/03/16 10:12:17;;;;;;;;;;;5.40;99.90;;;;;;5040297;28;20048;-63
2023/03/16 10:15:12;;;;;;;8.75;3.17;;;5.30;99.90;;;;;;5045857;28;19921;-63
2023/03/16 10:17:42;;;;;;;5.70;2.28;;;5.10;99.90;;;;;;5041502;28;20110;-63
2023/03/16 10:20:16;;;;;;;7.90;2.78;;;5.10;99.90;;;;;;5047304;28;20048;-63
2023/03/16 10:22:45;;;;;;;5.57;2.78;;;5.10;99.90;;;;;;5041207;28;20120;-64
2023/03/16 10:25:32;;;;;;;5.35;2.63;;;5.00;99.90;;;;;;5038608;28;20068;-63
2023/03/16 10:27:58;;;;;;;6.25;2.90;;;4.80;99.90;;;;;;5038805;28;20050;-64
2023/03/16 10:30:31;;;;;;;6.10;2.90;;;4.70;99.90;;;;;;5037953;28;20539;-63
2023/03/16 10:33:04;;;;;;;4.35;2.80;;;4.70;99.90;;;;;;5046443;28;20048;-64
2023/03/16 10:35:50;;;;;;;8.52;3.28;;;4.90;99.90;;;;;;5043833;28;20122;-64
2023/03/16 10:38:58;;;;;;;5.40;2.80;;;4.90;99.90;;;;;;5046111;28;20453;-65
2023/03/16 10:41:36;;;;;;;5.88;3.17;;;5.00;99.90;;;;;;5010048;28;20124;-63
2023/03/16 10:44:11;;;;;;;5.82;3.40;;;4.80;99.90;;;;;;5046310;28;20040;-63
2023/03/16 10:47:05;;;;;;;8.40;3.70;;;4.80;99.90;;;;;;5033832;28;20065;-63
2023/03/16 10:49:43;;;;;;;6.82;3.00;;;4.80;99.90;;;;;;5035199;28;20053;-62
2023/03/16 10:52:12;;;;;;;5.75;3.30;;;5.10;99.90;;;;;;5034182;28;20560;-63
2023/03/16 10:54:39;;;;;;;5.45;3.05;;;4.80;99.90;;;;;;5046075;28;20041;-63
2023/03/16 10:57:30;;;;;;;4.32;2.83;;;4.80;99.90;;;;;;5045976;28;20186;-62
2023/03/16 11:00:05;;;;;;;5.53;2.78;;;4.90;99.90;;;;;;5044249;28;20047;-63
2023/03/16 11:02:33;;;;;;;5.55;3.00;;;4.90;99.90;;;;;;5036567;28;20044;-63
2023/03/16 11:05:11;;;;;;;6.28;3.05;;;5.00;99.90;;;;;;5044250;28;20069;-63
2023/03/16 11:07:38;;;;;;;4.30;2.58;;;4.90;99.90;;;;;;5040593;28;20045;-64
2023/03/16 11:10:22;;;;;;;5.47;3.13;;;4.80;99.90;;;;;;5046120;28;20124;-63
2023/03/16 11:12:50;;;;;;;4.78;3.20;;;4.70;99.90;;;;;;5047675;28;20052;-64
2023/03/16 11:15:17;;;;;;;4.20;2.63;;;4.90;99.90;;;;;;5043261;28;20045;-63
2023/03/16 11:17:44;;;;;;;5.93;3.05;;;4.90;99.90;;;;;;5038356;28;20110;-63
2023/03/16 11:20:16;;;;;;;5.18;2.67;;;5.00;99.90;;;;;;5043651;28;20051;-64
2023/03/16 11:22:47;;;;;;;7.22;3.30;;;5.20;99.90;;;;;;5041818;28;20043;-62
2023/03/16 11:25:28;;;;;;;10.57;3.25;;;5.20;99.90;;;;;;5035345;28;20047;-63
2023/03/16 11:28:11;;;;;;;6.28;2.75;;;5.40;99.90;;;;;;5039003;28;20049;-63
2023/03/16 11:30:39;;;;;;;4.15;2.70;;;5.50;99.90;;;;;;5044030;28;20393;-62
2023/03/16 11:33:14;;;;;;;5.47;2.70;;;5.70;99.90;;;;;;5042198;28;20114;-63
2023/03/16 11:36:07;;;;;;;4.05;2.35;;;5.90;98.70;;;;;;5032680;28;20041;-62
2023/03/16 11:38:36;;;;;;;4.25;2.38;;;5.90;99.10;;;;;;5044304;28;20037;-62
2023/03/16 11:41:08;;;;;;;6.43;2.65;;;6.00;99.30;;;;;;5047609;28;20041;-63
2023/03/16 11:43:48;;;;;;;5.38;3.10;;;6.00;98.10;;;;;;5043828;28;20045;-61
2023/03/16 11:46:21;;;;;;;5.53;2.55;;;5.90;98.10;;;;;;5027470;28;20418;-63
2023/03/16 11:49:15;;;;;;;4.90;2.40;;;5.90;99.70;;;;;;5041106;28;20706;-63
2023/03/16 11:51:52;;;;;;;4.35;2.58;;;5.90;98.90;;;;;;5029222;28;20124;-62
2023/03/16 11:54:36;;;;;;;6.00;2.70;;;5.90;99.60;;;;;;5041966;28;20064;-62
2023/03/16 11:57:31;;;;;;;3.72;2.42;;;5.80;98.20;;;;;;5036047;28;20073;-63
2023/03/16 12:00:32;;;;;;;7.38;2.85;;;5.70;98.20;;;;;;5035240;28;20484;-63
2023/03/16 12:03:05;;;;;;;6.93;3.35;;;5.60;99.40;;;;;;5040011;28;20445;-61
2023/03/16 12:06:09;;;;;;;4.95;2.90;;;5.70;98.60;;;;;;5038595;28;20040;-61
2023/03/16 12:09:03;;;;;;;3.28;2.35;;;5.90;98.80;;;;;;5038370;28;20087;-63
2023/03/16 12:11:58;;;;;;;3.88;2.60;;;6.40;99.10;;;;;;5039059;28;20041;-60
2023/03/16 12:14:42;;;;;;;5.65;2.95;;;6.70;98.70;;;;;;5041216;28;20037;-60
2023/03/16 12:17:21;;;;;;;6.82;2.72;;;6.80;98.90;;;;;;5037331;28;20444;-62
2023/03/16 12:19:53;;;;;;;7.63;2.35;;;6.50;96.70;;;;;;5045042;28;20044;-62
2023/03/16 12:22:24;;;;;;;4.75;2.50;;;6.40;98.20;;;;;;5043472;28;20044;-61
2023/03/16 12:24:50;;;;;;;6.32;3.05;;;6.50;99.50;;;;;;5040141;28;20458;-62
2023/03/16 12:27:22;;;;;;;;;;;6.50;98.20;;;;;;5045113;28;20553;-62
2023/03/16 12:29:54;;;;;;;3.78;2.53;;;6.60;97.50;;;;;;5046664;28;20152;-63
2023/03/16 12:32:49;;;;;;;4.00;2.75;;;6.60;97.50;;;;;;5045479;28;20124;-62
2023/03/16 12:35:22;;;;;;;4.82;2.75;;;6.60;97.70;;;;;;5042985;28;20053;-61
2023/03/16 12:38:22;;;;;;;3.95;2.35;;;6.60;98.50;;;;;;5042039;28;20063;-62
2023/03/16 12:41:09;;;;;;;5.05;2.90;;;6.40;97.00;;;;;;5036368;28;20041;-59
2023/03/16 12:43:34;;;;;;;5.93;2.50;;;6.30;96.60;;;;;;5040428;28;20048;-62
2023/03/16 12:46:03;;;;;;;4.03;2.35;;;6.20;98.20;;;;;;5040298;28;20048;-63
2023/03/16 12:48:46;;;;;;;3.80;2.47;;;6.10;97.50;;;;;;5048839;28;20588;-65
2023/03/16 12:51:11;;;;;;;4.68;2.50;;;6.10;98.30;;;;;;5043231;28;20037;-64
2023/03/16 12:53:41;;;;;;;4.28;2.30;;;6.00;97.20;;;;;;5045367;28;20256;-64
2023/03/16 12:56:18;;;;;;;8.23;2.70;;;6.00;98.40;;;;;;5040509;28;20125;-63
2023/03/16 12:58:47;;;;;;;5.70;2.53;;;5.90;97.60;;;;;;5040247;28;20045;-62
2023/03/16 13:01:16;;;;;;;6.10;2.35;;;5.90;98.10;;;;;;5042596;28;20037;-61
2023/03/16 13:03:42;;;;;;;4.65;2.55;;;6.00;98.80;;;;;;5043485;28;20123;-57
2023/03/16 13:06:23;;;;;;;5.28;2.90;;;6.10;97.70;;;;;;5039437;28;20187;-60